Time;durP1;ratioP1;P1;durP2;ratioP2;P2;SDS_P1;SDS_P2;PMS_P1;PMS_P2;Temp;Humidity;BMP_temperature;BMP_pressure;BME280_temperature;BME280_humidity;BME280_pressure;Samples;Min_cycle;Max_cycle;Signal;HPM_P1;HPM_P2
2023/02/08 00:02:03;;;;;;;;;86.67;63.33;;;;;-2.68;76.64;101819.16;6288739;20;2897262;-58
2023/02/08 00:04:32;;;;;;;;;83.67;59.00;;;;;-2.58;76.39;101815.94;6317070;20;3658642;-59
2023/02/08 00:07:01;;;;;;;;;87.00;59.00;;;;;-2.62;76.41;101814.06;6317610;20;2884779;-57
2023/02/08 00:09:30;;;;;;;;;72.50;56.50;;;;;-2.55;76.26;101821.28;6285354;20;2875309;-58
2023/02/08 00:11:59;;;;;;;;;74.00;51.00;;;;;-2.36;76.04;101821.75;6287997;20;2880519;-58
2023/02/08 00:14:27;;;;;;;;;77.00;56.00;;;;;-2.31;75.75;101821.00;6284077;20;2497154;-58
2023/02/08 00:16:56;;;;;;;;;76.67;55.00;;;;;-2.21;75.38;101827.41;6288902;20;2889927;-58
2023/02/08 00:19:25;;;;;;;;;71.00;51.33;;;;;-2.13;75.20;101825.84;6319659;20;2885785;-58
2023/02/08 00:21:53;;;;;;;;;64.50;51.00;;;;;-2.24;75.35;101817.69;6309327;20;2489887;-58
2023/02/08 00:24:22;;;;;;;;;64.50;48.00;;;;;-2.24;75.57;101817.69;6286634;20;2884826;-56
2023/02/08 00:26:50;;;;;;;;;68.00;54.00;;;;;-2.07;75.13;101826.00;6285775;20;2876350;-58
2023/02/08 00:29:19;;;;;;;;;73.00;54.00;;;;;-2.16;75.97;101825.75;6286118;20;2869023;-58
2023/02/08 00:31:47;;;;;;;;;74.50;51.50;;;;;-2.20;76.06;101829.16;6285210;20;2883689;-56
2023/02/08 00:34:16;;;;;;;;;71.33;55.67;;;;;-2.13;76.32;101824.94;6287633;20;2873224;-57
2023/02/08 00:36:46;;;;;;;;;67.00;49.67;;;;;-2.08;76.50;101840.00;6318100;20;2880494;-57
2023/02/08 00:39:14;;;;;;;;;66.50;53.00;;;;;-2.15;76.59;101835.44;6314864;20;2500529;-57
2023/02/08 00:41:42;;;;;;;;;72.00;51.50;;;;;-2.16;77.24;101831.00;6283787;20;2881577;-58
2023/02/08 00:44:10;;;;;;;;;67.50;51.00;;;;;-2.20;78.01;101834.44;6285625;20;2869030;-58
2023/02/08 00:46:38;;;;;;;;;55.50;45.50;;;;;-2.16;78.61;101833.63;6282908;20;2500292;-57
2023/02/08 00:49:06;;;;;;;;;45.50;34.50;;;;;-2.05;78.25;101836.56;6282215;20;2500365;-58
2023/02/08 00:51:34;;;;;;;;;47.50;34.00;;;;;-1.89;77.49;101824.66;6281991;20;2500326;-58
2023/02/08 00:54:02;;;;;;;;;30.00;28.50;;;;;-1.91;77.41;101821.09;6285424;20;2500403;-56
2023/02/08 00:56:30;;;;;;;;;34.00;25.00;;;;;-2.00;77.14;101827.94;6284177;20;3569121;-59
2023/02/08 00:58:59;;;;;;;;;26.00;24.67;;;;;-1.78;77.41;101820.53;6285089;20;3562018;-58
2023/02/08 01:01:27;;;;;;;;;29.67;17.67;;;;;-1.76;77.10;101816.19;6316551;20;3590883;-46
2023/02/08 01:03:56;;;;;;;;;36.50;31.00;;;;;-1.69;77.12;101818.09;6314908;20;2853421;-47
2023/02/08 01:06:24;;;;;;;;;48.50;35.00;;;;;-1.89;78.00;101814.13;6282729;20;2500289;-51
2023/02/08 01:08:53;;;;;;;;;42.00;31.00;;;;;-1.81;78.28;101817.84;6284480;20;2858729;-47
2023/02/08 01:11:24;;;;;;;;;39.50;31.50;;;;;-1.70;78.54;101816.34;6278008;20;2500399;-46
2023/02/08 01:13:56;;;;;;;;;27.00;27.00;;;;;-1.81;77.91;101823.09;6285554;20;2844128;-50
2023/02/08 01:16:32;;;;;;;;;45.00;29.50;;;;;-1.89;78.44;101817.66;6284523;20;2861785;-59
2023/02/08 01:19:04;;;;;;;;;31.00;27.00;;;;;-1.79;78.48;101816.09;6286652;20;3583750;-57
2023/02/08 01:21:39;;;;;;;;;32.50;23.50;;;;;-1.66;78.05;101817.28;6283923;20;2844227;-59
2023/02/08 01:24:10;;;;;;;;;46.00;30.00;;;;;-1.65;77.97;101814.69;6286463;20;3639956;-58
2023/02/08 01:26:38;;;;;;;;;33.33;30.33;;;;;-1.64;78.03;101819.09;6285282;20;3604435;-59
2023/02/08 01:29:07;;;;;;;;;33.00;32.00;;;;;-1.55;77.56;101821.94;6284292;20;3596204;-59
2023/02/08 01:31:40;;;;;;;;;41.67;24.33;;;;;-1.46;77.50;101820.38;6285665;20;3615895;-59
2023/02/08 01:34:10;;;;;;;;;33.00;27.50;;;;;-1.41;77.09;101824.88;6281600;20;2500335;-58
2023/02/08 01:36:39;;;;;;;;;40.00;31.00;;;;;-1.42;76.94;101819.56;6281040;20;2500307;-57
2023/02/08 01:39:09;;;;;;;;;36.50;29.50;;;;;-1.45;77.37;101832.66;6285178;20;2853532;-58
2023/02/08 01:41:43;;;;;;;;;51.00;29.67;;;;;-1.39;77.53;101833.72;6281770;20;2889992;-58
2023/02/08 01:44:12;;;;;;;;;46.00;38.50;;;;;-1.41;78.04;101837.16;6314411;20;2856532;-59
2023/02/08 01:46:49;;;;;;;;;44.50;37.25;;;;;-1.54;79.20;101836.00;6286943;20;3613816;-58
2023/02/08 01:49:34;;;;;;;;;35.00;27.00;;;;;-1.42;78.78;101832.72;6314119;20;2500320;-56
2023/02/08 01:52:19;;;;;;;;;50.50;36.50;;;;;-1.40;78.25;101836.31;6281705;20;2881608;-56
2023/02/08 01:55:33;;;;;;;;;46.00;37.00;;;;;-1.52;78.55;101836.94;6283014;20;2871257;-56
2023/02/08 01:58:08;;;;;;;;;42.00;36.50;;;;;-1.63;78.69;101838.44;6307092;20;2500365;-59
2023/02/08 02:00:36;;;;;;;;;50.00;39.00;;;;;-1.62;78.91;101838.47;6276743;20;2500302;-58
2023/02/08 02:03:05;;;;;;;;;30.67;24.00;;;;;-1.48;78.19;101829.97;6284976;20;3572169;-58
2023/02/08 02:05:44;;;;;;;;;58.33;41.33;;;;;-1.55;78.35;101836.88;6317909;20;3649292;-57
2023/02/08 02:08:13;;;;;;;;;52.00;43.00;;;;;-1.67;79.09;101837.47;6311116;20;2872217;-59
2023/02/08 02:10:43;;;;;;;;;62.00;45.00;;;;;-1.59;78.83;101841.16;6282190;20;2866953;-58
2023/02/08 02:13:21;;;;;;;;;62.33;45.00;;;;;-1.65;78.81;101843.66;6282671;20;2875352;-58
2023/02/08 02:15:52;;;;;;;;;50.50;41.50;;;;;-1.43;78.63;101849.41;6314598;20;2870076;-57
2023/02/08 02:18:29;;;;;;;;;46.50;42.50;;;;;-1.52;78.91;101849.22;6283120;20;2875320;-58
2023/02/08 02:21:28;;;;;;;;;52.50;38.00;;;;;-1.82;79.87;101845.91;6273731;20;2500390;-58
2023/02/08 02:24:48;;;;;;;;;51.50;39.50;;;;;-1.52;80.00;101846.59;6278485;20;2500392;-58
2023/02/08 02:27:44;;;;;;;;;40.67;31.00;;;;;-1.48;79.94;101843.16;6283969;20;3588825;-59
2023/02/08 02:30:43;;;;;;;;;55.00;43.00;;;;;-1.46;79.28;101841.44;6283138;20;2866019;-57
2023/02/08 02:33:37;;;;;;;;;42.00;33.50;;;;;-1.59;79.85;101843.78;6282526;20;2500286;-57
2023/02/08 02:36:34;;;;;;;;;65.00;37.00;;;;;-1.36;79.26;101851.34;6280514;20;2500725;-58
2023/02/08 02:39:40;;;;;;;;;45.00;42.00;;;;;-1.43;80.11;101852.03;6280594;20;2878601;-58
2023/02/08 02:45:55;;;;;;;;;38.00;34.33;;;;;-1.55;80.67;101853.56;6281726;20;3592096;-58
2023/02/08 02:48:46;;;;;;;;;51.00;40.00;;;;;-1.63;80.71;101847.22;6282051;20;2857643;-59
2023/02/08 02:51:36;;;;;;;;;46.00;38.50;;;;;-1.50;81.05;101855.38;6278331;20;2857604;-57
2023/02/08 02:54:24;;;;;;;;;40.00;32.50;;;;;-1.60;81.53;101860.47;6280510;20;2500362;-58
2023/02/08 02:57:01;;;;;;;;;37.50;30.50;;;;;-1.74;82.42;101856.59;6279677;20;2500374;-58
2023/02/08 02:59:33;;;;;;;;;31.00;31.00;;;;;-1.62;82.96;101856.91;6278402;20;2500304;-58
2023/02/08 03:02:02;;;;;;;;;51.50;41.50;;;;;-1.61;82.99;101863.03;6278032;20;2500306;-57
2023/02/08 03:04:33;;;;;;;;;42.00;36.00;;;;;-1.52;82.81;101865.03;6279487;20;2500405;-57
2023/02/08 03:07:19;;;;;;;;;48.00;42.50;;;;;-1.53;82.96;101871.13;6281967;20;2500289;-57
2023/02/08 03:10:20;;;;;;;;;36.00;30.00;;;;;-1.57;82.57;101876.34;6277182;20;2500312;-57
2023/02/08 03:12:57;;;;;;;;;36.00;28.00;;;;;-1.64;82.81;101874.41;6278633;20;2500272;-58
2023/02/08 03:15:52;;;;;;;;;46.00;34.00;;;;;-1.53;82.50;101881.66;6280164;20;2500288;-57
2023/02/08 03:18:59;;;;;;;;;36.00;28.00;;;;;-1.52;81.99;101870.28;6279707;20;2500291;-58
2023/02/08 03:22:03;;;;;;;;;50.00;36.00;;;;;-1.43;81.72;101878.38;6281301;20;2865312;-54
2023/02/08 03:25:02;;;;;;;;;54.00;42.00;;;;;-1.45;81.79;101874.81;6283183;20;2866940;-56
2023/02/08 03:27:59;;;;;;;;;46.00;37.00;;;;;-1.63;81.62;101886.72;6278600;20;2500390;-58
2023/02/08 03:30:58;;;;;;;;;25.50;25.00;;;;;-1.45;81.30;101893.25;6278355;20;2841975;-58
2023/02/08 03:33:52;;;;;;;;;46.33;35.00;;;;;-1.31;80.47;101888.34;6290985;20;2879608;-56
2023/02/08 03:36:47;;;;;;;;;28.00;24.67;;;;;-1.27;79.64;101890.16;6322086;20;3575776;-57
2023/02/08 03:39:26;;;;;;;;;33.00;24.00;;;;;-1.29;79.94;101889.22;6288931;20;2730644;-58
2023/02/08 03:42:10;;;;;;;;;41.00;32.00;;;;;-1.24;79.50;101901.66;6286228;20;2500352;-56
2023/02/08 03:44:57;;;;;;;;;39.00;31.00;;;;;-1.23;79.22;101897.28;6292997;20;2863815;-57
2023/02/08 03:47:31;;;;;;;;;35.50;30.00;;;;;-1.29;79.68;101902.41;6293254;20;2860772;-57
2023/02/08 03:50:07;;;;;;;;;32.00;25.00;;;;;-1.38;79.69;101903.09;6292176;20;2852373;-59
2023/02/08 03:52:36;;;;;;;;;38.50;29.00;;;;;-1.21;79.80;101900.84;6286345;20;2500341;-59
2023/02/08 03:55:30;;;;;;;;;40.00;29.50;;;;;-1.18;79.48;101904.44;6288025;20;2500431;-55
2023/02/08 03:58:57;;;;;;;;;31.50;29.00;;;;;-1.20;79.45;101900.00;6289206;20;2500494;-57
2023/02/08 04:01:43;;;;;;;;;49.00;28.00;;;;;-1.18;79.47;101900.94;6290054;20;3606561;-58
2023/02/08 04:04:17;;;;;;;;;22.50;21.00;;;;;-1.18;79.55;101901.81;6292612;20;2818086;-55
2023/02/08 04:06:45;;;;;;;;;33.00;24.50;;;;;-1.21;79.39;101901.75;6291682;20;2848254;-57
2023/02/08 04:09:14;;;;;;;;;37.00;32.67;;;;;-1.22;79.17;101899.06;6293116;20;3602794;-56
2023/02/08 04:11:42;;;;;;;;;39.00;29.00;;;;;-1.18;79.02;101887.75;6289636;20;2859689;-56
2023/02/08 04:14:10;;;;;;;;;41.50;31.00;;;;;-1.14;78.85;101895.72;6292488;20;2874275;-55
2023/02/08 04:16:38;;;;;;;;;20.00;20.00;;;;;-1.12;78.96;101893.16;6289397;20;2835790;-58
2023/02/08 04:19:06;;;;;;;;;32.00;28.50;;;;;-1.00;79.77;101895.13;6289973;20;2500402;-57
2023/02/08 04:21:34;;;;;;;;;42.50;38.00;;;;;-1.09;79.08;101898.47;6288134;20;2866428;-57
2023/02/08 04:24:01;;;;;;;;;35.50;30.00;;;;;-1.04;79.01;101891.56;6290712;20;2500438;-56
2023/02/08 04:26:30;;;;;;;;;36.67;24.67;;;;;-1.25;78.45;101889.34;6290899;20;3608610;-58
2023/02/08 04:28:59;;;;;;;;;25.00;25.00;;;;;-1.31;78.39;101873.41;6291615;20;3578519;-58
2023/02/08 04:31:28;;;;;;;;;31.00;24.33;;;;;-1.30;78.38;101890.97;6318537;20;3580470;-58
2023/02/08 04:33:57;;;;;;;;;22.00;21.33;;;;;-1.30;78.28;101893.63;6292365;20;3563884;-58
2023/02/08 04:36:24;;;;;;;;;21.50;21.50;;;;;-1.50;79.08;101890.56;6323272;20;2824401;-58
2023/02/08 04:38:53;;;;;;;;;32.00;28.00;;;;;-1.43;78.67;101896.84;6289317;20;3584790;-56
2023/02/08 04:41:22;;;;;;;;;32.00;25.00;;;;;-1.28;78.39;101906.84;6319611;20;3587795;-56
2023/02/08 04:43:50;;;;;;;;;28.00;23.50;;;;;-1.52;78.96;101904.53;6283588;20;2500732;-57
2023/02/08 04:46:18;;;;;;;;;29.67;25.33;;;;;-1.52;78.86;101905.41;6284300;20;3578425;-58
2023/02/08 04:48:46;;;;;;;;;37.50;23.50;;;;;-1.55;79.15;101913.25;6315483;20;2873361;-58
2023/02/08 04:51:15;;;;;;;;;54.00;47.50;;;;;-1.55;78.55;101906.25;6281896;20;2869074;-56
2023/02/08 04:53:43;;;;;;;;;40.50;29.50;;;;;-1.55;79.24;101914.13;6281693;20;2500360;-55
2023/02/08 04:56:12;;;;;;;;;73.00;54.50;;;;;-1.65;79.64;101922.66;6286786;20;2889880;-57
2023/02/08 04:58:40;;;;;;;;;59.00;46.50;;;;;-1.68;79.71;101919.97;6284745;20;2867009;-58
2023/02/08 05:01:09;;;;;;;;;34.00;27.00;;;;;-1.83;79.88;101914.31;6279072;20;2500518;-56
2023/02/08 05:03:37;;;;;;;;;35.50;28.00;;;;;-1.86;80.31;101924.78;6285698;20;2500378;-58
2023/02/08 05:06:06;;;;;;;;;28.33;28.00;;;;;-1.92;80.27;101924.59;6282689;20;3581588;-57
2023/02/08 05:08:34;;;;;;;;;27.50;23.50;;;;;-1.89;80.25;101920.31;6286039;20;2826374;-58
2023/02/08 05:11:03;;;;;;;;;43.67;37.00;;;;;-1.96;80.23;101930.66;6282203;20;3602415;-55
2023/02/08 05:13:32;;;;;;;;;67.00;45.50;;;;;-2.06;80.62;101926.88;6286526;20;2878479;-56
2023/02/08 05:16:01;;;;;;;;;57.50;48.00;;;;;-2.05;80.52;101926.94;6283791;20;2851315;-56
2023/02/08 05:18:29;;;;;;;;;32.50;26.00;;;;;-2.09;80.83;101927.69;6287039;20;2843105;-55
2023/02/08 05:21:00;;;;;;;;;31.50;30.00;;;;;-2.14;81.09;101929.31;6282664;20;2500301;-58
2023/02/08 05:23:29;;;;;;;;;34.00;29.00;;;;;-2.31;81.51;101926.25;6280240;20;2847160;-56
2023/02/08 05:25:58;;;;;;;;;37.00;27.00;;;;;-2.37;81.94;101938.31;6282897;20;3577406;-56
2023/02/08 05:28:26;;;;;;;;;27.50;27.50;;;;;-2.31;81.67;101936.75;6315624;20;2500323;-56
2023/02/08 05:30:54;;;;;;;;;71.50;46.50;;;;;-2.30;81.85;101941.16;6284221;20;2857694;-57
2023/02/08 05:33:23;;;;;;;;;65.50;49.00;;;;;-2.32;81.77;101941.97;6285376;20;2875277;-54
2023/02/08 05:35:52;;;;;;;;;47.50;42.50;;;;;-2.49;81.98;101947.66;6282380;20;2872249;-58
2023/02/08 05:38:20;;;;;;;;;65.50;51.00;;;;;-2.37;82.01;101951.47;6278947;20;2501402;-56
2023/02/08 05:40:48;;;;;;;;;45.00;35.00;;;;;-2.41;82.23;101949.63;6278065;20;2500284;-56
2023/02/08 05:43:15;;;;;;;;;52.50;44.00;;;;;-2.42;81.94;101943.47;6281412;20;2508699;-55
2023/02/08 05:45:43;;;;;;;;;39.00;37.00;;;;;-2.44;82.16;101946.06;6281302;20;2500292;-56
2023/02/08 05:48:12;;;;;;;;;56.50;44.00;;;;;-2.51;82.21;101944.09;6276800;20;2865935;-56
2023/02/08 05:50:40;;;;;;;;;41.00;35.50;;;;;-2.55;82.14;101950.13;6279971;20;2500298;-56
2023/02/08 05:53:08;;;;;;;;;40.50;31.00;;;;;-2.50;81.98;101951.16;6286300;20;2873352;-55
2023/02/08 05:55:36;;;;;;;;;47.00;38.50;;;;;-2.53;82.07;101951.03;6280380;20;2500392;-56
2023/02/08 05:58:04;;;;;;;;;45.00;38.50;;;;;-2.55;81.87;101958.03;6283176;20;2500421;-55
2023/02/08 06:00:33;;;;;;;;;46.50;37.00;;;;;-2.45;82.46;101959.16;6283028;20;2865916;-54
2023/02/08 06:03:00;;;;;;;;;36.00;33.00;;;;;-2.54;82.21;101959.78;6280087;20;2500263;-53
2023/02/08 06:05:28;;;;;;;;;36.00;28.50;;;;;-2.52;82.11;101960.72;6287873;20;2849227;-56
2023/02/08 06:07:56;;;;;;;;;35.00;28.50;;;;;-2.47;81.81;101967.00;6282940;20;2500350;-57
2023/02/08 06:10:24;;;;;;;;;40.50;32.00;;;;;-2.59;82.44;101971.91;6282377;20;2852512;-56
2023/02/08 06:12:52;;;;;;;;;36.50;31.50;;;;;-2.70;82.61;101975.97;6278822;20;2500352;-58
2023/02/08 06:15:20;;;;;;;;;49.50;33.00;;;;;-2.62;82.78;101976.19;6281722;20;2500293;-56
2023/02/08 06:17:48;;;;;;;;;37.50;31.50;;;;;-2.53;82.14;101986.97;6282685;20;2500287;-57
2023/02/08 06:20:16;;;;;;;;;51.00;43.00;;;;;-2.48;82.09;101980.09;6281274;20;2500446;-54
2023/02/08 06:22:45;;;;;;;;;29.67;26.33;;;;;-2.43;81.75;101992.53;6284075;20;3576297;-56
2023/02/08 06:25:13;;;;;;;;;40.50;35.00;;;;;-2.47;82.26;101985.44;6313382;20;2500298;-57
2023/02/08 06:27:41;;;;;;;;;28.00;20.00;;;;;-2.38;81.70;101986.53;6285643;20;3566925;-57
2023/02/08 06:30:10;;;;;;;;;40.50;28.50;;;;;-2.26;81.05;101986.88;6313043;20;2500267;-58
2023/02/08 06:32:38;;;;;;;;;47.00;40.00;;;;;-1.68;79.97;101993.72;6280994;20;2500351;-54
2023/02/08 06:35:07;;;;;;;;;44.50;34.00;;;;;-0.26;74.47;102003.97;6284952;20;2856588;-56
2023/02/08 06:37:36;;;;;;;;;41.50;31.00;;;;;-0.97;74.49;101992.78;6280013;20;2500559;-55
2023/02/08 06:40:06;;;;;;;;;52.00;43.50;;;;;-0.64;74.00;101997.00;6282392;20;2867997;-57
2023/02/08 06:42:36;;;;;;;;;85.33;65.00;;;;;-0.17;71.48;102002.38;6284796;20;2888423;-57
2023/02/08 06:45:08;;;;;;;;;147.67;115.67;;;;;-0.31;71.71;101999.47;6316386;20;3723212;-57
2023/02/08 06:47:40;;;;;;;;;70.50;56.00;;;;;0.34;70.25;102009.50;6284124;20;2866942;-57
2023/02/08 06:50:09;;;;;;;;;66.50;54.50;;;;;0.68;68.79;102010.97;6278732;20;2500370;-57
2023/02/08 06:52:38;;;;;;;;;41.00;38.50;;;;;0.85;66.82;102009.50;6283966;20;2860743;-58
2023/02/08 06:55:06;;;;;;;;;73.50;57.00;;;;;1.08;66.46;102019.53;6278778;20;2500348;-55
2023/02/08 06:57:36;;;;;;;;;98.00;86.00;;;;;1.47;63.59;102018.31;6276802;20;2882703;-58
2023/02/08 07:00:06;;;;;;;;;80.33;59.67;;;;;2.37;60.63;102016.72;6313922;20;3636827;-56
2023/02/08 07:02:36;;;;;;;;;50.00;36.33;;;;;2.34;60.11;102027.28;6314344;20;2887975;-58
2023/02/08 07:05:07;;;;;;;;;203.75;168.00;;;;;2.92;58.49;102033.97;6313667;20;3721211;-58
2023/02/08 07:07:36;;;;;;;;;51.00;38.67;;;;;3.07;58.02;102032.31;6278016;20;2881672;-57
2023/02/08 07:10:06;;;;;;;;;46.33;35.67;;;;;3.70;55.56;102040.66;6313106;20;2881529;-58
2023/02/08 07:12:37;;;;;;;;;35.50;35.50;;;;;5.03;51.44;102032.03;6313564;20;2853563;-55
2023/02/08 07:15:06;;;;;;;;;47.50;38.00;;;;;5.29;50.66;102031.09;6282395;20;2869064;-57
2023/02/08 07:17:35;;;;;;;;;63.50;50.00;;;;;5.58;49.55;102041.72;6282338;20;2875389;-57
2023/02/08 07:20:06;;;;;;;;;40.67;32.33;;;;;6.06;48.60;102039.75;6281004;20;2871109;-56
2023/02/08 07:22:34;;;;;;;;;36.50;31.50;;;;;6.19;47.62;102039.66;6313562;20;2852417;-54
2023/02/08 07:25:06;;;;;;;;;52.00;45.50;;;;;5.29;49.58;102039.09;6281170;20;2860793;-53
2023/02/08 07:27:35;;;;;;;;;41.50;37.00;;;;;6.19;47.64;102045.00;6280166;20;2861811;-56
2023/02/08 07:30:07;;;;;;;;;37.00;33.00;;;;;6.87;46.72;102048.97;6280045;20;2861895;-54
2023/02/08 07:32:35;;;;;;;;;43.00;35.00;;;;;5.71;47.67;102043.44;6313527;20;2866961;-55
2023/02/08 07:35:06;;;;;;;;;114.00;104.33;;;;;6.44;46.95;102048.44;6281333;20;3693069;-57
2023/02/08 07:37:35;;;;;;;;;38.67;35.33;;;;;7.60;45.02;102060.75;6312753;20;2861751;-57
2023/02/08 07:40:06;;;;;;;;;95.67;76.33;;;;;7.82;44.78;102065.84;6311389;20;3672123;-56
2023/02/08 07:42:35;;;;;;;;;56.33;43.67;;;;;8.00;44.22;102062.94;6279454;20;2870138;-57
2023/02/08 07:45:05;;;;;;;;;63.33;49.33;;;;;4.67;49.36;102054.22;6315171;20;2871233;-55
2023/02/08 07:47:34;;;;;;;;;75.67;59.67;;;;;2.16;58.80;102053.59;6310748;20;2874357;-55
2023/02/08 07:50:04;;;;;;;;;61.50;51.00;;;;;2.01;61.87;102056.06;6311956;20;2855475;-56
2023/02/08 07:52:33;;;;;;;;;87.00;70.33;;;;;1.89;63.01;102054.16;6279611;20;3644019;-53
2023/02/08 07:55:02;;;;;;;;;15.00;11.00;;;;;1.77;62.88;102057.56;6311935;20;3509068;-52
2023/02/08 07:57:31;;;;;;;;;30.00;27.00;;;;;1.26;65.58;102066.53;6310908;20;2846225;-57
2023/02/08 08:00:01;;;;;;;;;351.00;307.33;;;;;1.96;65.06;102066.59;6278787;20;3736047;-54
2023/02/08 08:02:30;;;;;;;;;40.00;35.50;;;;;2.17;64.25;102072.16;6282452;20;2859785;-55
2023/02/08 08:04:58;;;;;;;;;19.67;19.67;;;;;1.35;65.55;102073.75;6280739;20;3546125;-55
2023/02/08 08:07:26;;;;;;;;;30.00;25.00;;;;;1.42;66.41;102073.84;6308451;20;2500348;-53
2023/02/08 08:09:55;;;;;;;;;28.67;24.00;;;;;1.34;66.31;102075.47;6282231;20;3567965;-53
2023/02/08 08:12:23;;;;;;;;;36.50;28.50;;;;;1.72;66.16;102077.78;6277046;20;2500394;-56
2023/02/08 08:14:52;;;;;;;;;30.33;19.33;;;;;1.38;66.82;102076.41;6278936;20;3578393;-54
2023/02/08 08:17:20;;;;;;;;;25.33;23.33;;;;;1.57;66.27;102078.44;6312451;20;3549227;-54
2023/02/08 08:19:49;;;;;;;;;18.33;12.67;;;;;1.33;66.77;102083.41;6313729;20;3516943;-53
2023/02/08 08:22:17;;;;;;;;;30.00;21.00;;;;;1.63;66.20;102082.94;6318569;20;2839986;-54
2023/02/08 08:24:45;;;;;;;;;19.00;16.67;;;;;1.50;68.02;102077.50;6285489;20;3562752;-57
2023/02/08 08:27:14;;;;;;;;;12.75;12.75;;;;;1.78;66.58;102082.25;6305999;20;1823303;-56
2023/02/08 08:29:42;;;;;;;;;39.50;30.00;;;;;1.74;69.69;102079.59;6314128;20;2500288;-55
2023/02/08 08:32:09;;;;;;;;;29.00;21.00;;;;;1.80;68.72;102081.41;6283268;20;2500411;-54
2023/02/08 08:34:39;;;;;;;;;28.00;24.00;;;;;1.35;68.98;102087.84;6285724;20;3571134;-56
2023/02/08 08:37:08;;;;;;;;;25.00;14.00;;;;;1.69;69.26;102088.34;6319015;20;2818058;-56
2023/02/08 08:39:36;;;;;;;;;30.00;26.00;;;;;1.53;68.31;102090.78;6283820;20;3575318;-52
2023/02/08 08:42:04;;;;;;;;;26.00;25.00;;;;;1.28;69.32;102097.44;6284056;20;2500284;-55
2023/02/08 08:44:32;;;;;;;;;10.67;2.33;;;;;1.33;69.77;102102.81;6284919;20;3512766;-52
2023/02/08 08:47:01;;;;;;;;;36.67;31.33;;;;;1.57;69.71;102106.69;6287809;20;3612142;-53
2023/02/08 08:49:31;;;;;;;;;59.00;39.00;;;;;1.43;69.83;102086.22;6284337;20;3634731;-53
2023/02/08 08:52:00;;;;;;;;;26.00;19.00;;;;;1.10;70.21;102102.44;6313028;20;3573313;-56
2023/02/08 08:54:27;;;;;;;;;34.00;29.00;;;;;1.36;70.88;102110.78;6280654;20;2500420;-54
2023/02/08 08:56:55;;;;;;;;;9.00;6.00;;;;;1.21;71.39;102106.19;6284269;20;3469011;-52
2023/02/08 08:59:23;;;;;;;;;32.00;25.50;;;;;1.40;71.24;102110.00;6281727;20;2500355;-53
2023/02/08 09:01:51;;;;;;;;;37.00;27.00;;;;;1.43;71.16;102117.09;6284732;20;2500403;-54
2023/02/08 09:04:21;;;;;;;;;40.00;30.50;;;;;1.66;70.47;102120.97;6278329;20;2500307;-54
2023/02/08 09:06:53;;;;;;;;;34.50;28.00;;;;;1.87;70.08;102120.38;6285687;20;2856784;-52
2023/02/08 09:09:22;;;;;;;;;54.33;34.33;;;;;1.68;70.75;102118.31;6283846;20;2882627;-54
2023/02/08 09:11:51;;;;;;;;;57.50;43.50;;;;;1.57;71.50;102128.75;6308968;20;2862886;-51
2023/02/08 09:14:20;;;;;;;;;26.33;22.00;;;;;1.81;70.84;102125.56;6283083;20;2845251;-55
2023/02/08 09:16:48;;;;;;;;;29.67;24.00;;;;;1.83;70.74;102131.78;6313545;20;3566984;-52
2023/02/08 09:19:17;;;;;;;;;32.00;21.33;;;;;1.68;71.05;102139.50;6315971;20;3600422;-52
2023/02/08 09:21:46;;;;;;;;;40.00;29.33;;;;;1.86;70.81;102129.16;6285176;20;3609720;-55
2023/02/08 09:24:16;;;;;;;;;40.50;31.00;;;;;2.54;69.51;102135.31;6285924;20;2844044;-52
2023/02/08 09:26:47;;;;;;;;;39.00;35.00;;;;;2.67;69.75;102133.69;6284367;20;2859693;-54
2023/02/08 09:29:17;;;;;;;;;99.33;83.67;;;;;2.97;68.20;102138.38;6285706;20;3657596;-55
2023/02/08 09:31:45;;;;;;;;;27.00;21.00;;;;;2.92;66.54;102140.97;6286145;20;2834823;-53
2023/02/08 09:34:14;;;;;;;;;24.67;19.00;;;;;2.60;66.59;102136.25;6284287;20;3571083;-53
2023/02/08 09:36:43;;;;;;;;;19.33;17.33;;;;;2.33;66.94;102139.47;6286812;20;3544036;-52
2023/02/08 09:39:20;;;;;;;;;36.50;28.50;;;;;2.31;67.94;102130.63;6280981;20;2500550;-52
2023/02/08 09:42:31;;;;;;;;;27.00;23.00;;;;;3.02;65.11;102136.66;6284651;20;2500314;-56
2023/02/08 09:45:46;;;;;;;;;58.33;41.67;;;;;3.06;65.79;102133.16;6286674;20;2880516;-55
2023/02/08 09:48:38;;;;;;;;;48.00;34.00;;;;;2.90;65.22;102131.22;6317508;20;2760746;-56
2023/02/08 09:51:33;;;;;;;;;40.00;30.00;;;;;3.02;64.62;102139.31;6310766;20;2855485;-53
2023/02/08 09:54:42;;;;;;;;;34.00;29.50;;;;;3.07;63.88;102140.25;6283972;20;2855523;-58
2023/02/08 09:57:23;;;;;;;;;61.00;47.50;;;;;3.51;62.71;102151.22;6282116;20;2866932;-58
2023/02/08 10:00:00;;;;;;;;;43.50;32.00;;;;;3.22;61.73;102153.66;6282416;20;2864866;-58
2023/02/08 10:02:32;;;;;;;;;20.00;17.50;;;;;3.27;61.37;102138.66;6284347;20;2819075;-57
2023/02/08 10:05:19;;;;;;;;;36.00;29.50;;;;;3.24;61.93;102149.25;6282312;20;2863814;-58
2023/02/08 10:07:48;;;;;;;;;20.50;15.50;;;;;3.13;61.16;102145.59;6284949;20;2827422;-54
2023/02/08 10:10:38;;;;;;;;;29.50;24.00;;;;;3.12;61.84;102154.44;6279961;20;2500375;-55
2023/02/08 10:13:37;;;;;;;;;39.33;32.33;;;;;3.02;61.95;102144.63;6280348;20;2869092;-57
2023/02/08 10:16:55;;;;;;;;;43.00;34.50;;;;;3.29;62.56;102149.25;6317286;20;2864892;-59
2023/02/08 10:19:42;;;;;;;;;77.33;55.67;;;;;3.44;60.83;102148.50;6284711;20;3651296;-58
2023/02/08 10:23:08;;;;;;;;;28.00;24.50;;;;;3.26;60.02;102142.16;6312405;20;2846131;-56
2023/02/08 10:26:00;;;;;;;;;40.00;29.50;;;;;3.27;60.92;102143.97;6280295;20;2855492;-57
2023/02/08 10:29:09;;;;;;;;;58.00;41.67;;;;;3.76;60.33;102151.38;6281109;20;3626503;-57
2023/02/08 10:32:56;;;;;;;;;39.33;30.00;;;;;3.32;61.54;102156.38;6311584;20;2873229;-58
2023/02/08 10:35:36;;;;;;;;;39.50;30.50;;;;;3.28;59.95;102152.81;6310237;20;2860697;-59
2023/02/08 10:38:19;;;;;;;;;25.50;25.00;;;;;3.55;59.38;102141.50;6280571;20;2500300;-59
2023/02/08 10:41:01;;;;;;;;;42.50;39.00;;;;;3.53;59.63;102143.28;6281051;20;2845192;-58
2023/02/08 10:43:34;;;;;;;;;30.50;26.00;;;;;3.91;58.20;102137.31;6283497;20;2850306;-59
2023/02/08 10:46:23;;;;;;;;;47.50;37.50;;;;;3.90;57.05;102132.88;6282757;20;2872286;-58
2023/02/08 10:49:17;;;;;;;;;50.67;37.67;;;;;3.87;57.90;102130.19;6280981;20;2867986;-59
2023/02/08 10:51:47;;;;;;;;;36.00;27.00;;;;;4.30;57.13;102127.72;6315868;20;2872139;-59
2023/02/08 10:54:17;;;;;;;;;77.33;53.33;;;;;4.16;56.83;102135.63;6312792;20;3646168;-57
2023/02/08 10:57:03;;;;;;;;;52.67;38.33;;;;;3.78;56.18;102130.13;6313185;20;2875442;-59
2023/02/08 10:59:48;;;;;;;;;44.67;36.00;;;;;3.48;57.47;102135.28;6312242;20;3624303;-59
2023/02/08 11:02:33;;;;;;;;;37.00;33.67;;;;;3.29;58.61;102139.56;6308833;20;2869221;-57
2023/02/08 11:05:16;;;;;;;;;19.00;18.00;;;;;3.41;57.95;102136.09;6311151;20;2826337;-59
2023/02/08 11:07:44;;;;;;;;;27.50;23.00;;;;;3.37;58.78;102133.41;6278903;20;2500286;-58
2023/02/08 11:10:19;;;;;;;;;43.50;35.50;;;;;3.76;57.09;102145.19;6280761;20;2865990;-56
2023/02/08 11:13:12;;;;;;;;;36.50;29.50;;;;;4.21;56.25;102133.88;6276482;20;2850301;-58
2023/02/08 11:15:45;;;;;;;;;23.00;21.00;;;;;3.81;56.14;102135.47;6283139;20;2500332;-58
2023/02/08 11:18:39;;;;;;;;;60.00;42.00;;;;;3.88;55.39;102139.94;6279862;20;2881554;-58
2023/02/08 11:21:23;;;;;;;;;43.33;32.00;;;;;3.69;56.06;102139.84;6273206;20;3619023;-58
2023/02/08 11:23:56;;;;;;;;;58.00;39.33;;;;;3.92;56.67;102144.38;6310493;20;3624422;-59
2023/02/08 11:26:34;;;;;;;;;23.67;16.33;;;;;3.64;56.67;102140.69;6311841;20;2829658;-59
2023/02/08 11:29:22;;;;;;;;;45.00;36.00;;;;;3.84;55.53;102138.13;6313003;20;2879563;-58
2023/02/08 11:32:13;;;;;;;;;20.67;14.67;;;;;3.72;56.28;102144.28;6313461;20;3558623;-55
2023/02/08 11:34:43;;;;;;;;;50.00;38.00;;;;;4.02;55.60;102140.91;6310021;20;2872197;-57
2023/02/08 11:37:27;;;;;;;;;51.50;40.50;;;;;4.45;56.11;102141.09;6311232;20;2493023;-57